sensor_id;sensor_type;location;lat;lon;timestamp;P1;durP1;ratioP1;P2;durP2;ratioP2
17524;SDS011;40431;52.198;9.902;2023-02-15T00:00:14;13.23;;;12.23;;
17524;SDS011;40431;52.198;9.902;2023-02-15T00:02:41;13.60;;;12.53;;
17524;SDS011;40431;52.198;9.902;2023-02-15T00:05:09;12.43;;;11.43;;
17524;SDS011;40431;52.198;9.902;2023-02-15T00:07:35;12.17;;;11.23;;
17524;SDS011;40431;52.198;9.902;2023-02-15T00:10:02;12.63;;;11.63;;
17524;SDS011;40431;52.198;9.902;2023-02-15T00:12:28;12.17;;;11.27;;
17524;SDS011;40431;52.198;9.902;2023-02-15T00:14:55;12.10;;;11.20;;
17524;SDS011;40431;52.198;9.902;2023-02-15T00:17:21;12.70;;;11.60;;
17524;SDS011;40431;52.198;9.902;2023-02-15T00:19:47;13.50;;;12.13;;
17524;SDS011;40431;52.198;9.902;2023-02-15T00:22:15;12.93;;;12.03;;
17524;SDS011;40431;52.198;9.902;2023-02-15T00:24:41;12.67;;;11.67;;
17524;SDS011;40431;52.198;9.902;2023-02-15T00:27:08;12.27;;;11.27;;
17524;SDS011;40431;52.198;9.902;2023-02-15T00:29:35;12.47;;;11.50;;
17524;SDS011;40431;52.198;9.902;2023-02-15T00:32:01;12.40;;;11.50;;
17524;SDS011;40431;52.198;9.902;2023-02-15T00:34:27;12.97;;;11.80;;
17524;SDS011;40431;52.198;9.902;2023-02-15T00:36:54;16.70;;;15.20;;
17524;SDS011;40431;52.198;9.902;2023-02-15T00:39:22;16.03;;;14.53;;
17524;SDS011;40431;52.198;9.902;2023-02-15T00:41:48;16.93;;;15.43;;
17524;SDS011;40431;52.198;9.902;2023-02-15T00:44:15;19.53;;;17.63;;
17524;SDS011;40431;52.198;9.902;2023-02-15T00:46:42;19.10;;;17.17;;
17524;SDS011;40431;52.198;9.902;2023-02-15T00:49:08;16.03;;;14.53;;
17524;SDS011;40431;52.198;9.902;2023-02-15T00:51:35;15.23;;;14.03;;
17524;SDS011;40431;52.198;9.902;2023-02-15T00:54:01;13.73;;;12.63;;
17524;SDS011;40431;52.198;9.902;2023-02-15T00:56:29;13.70;;;12.60;;
17524;SDS011;40431;52.198;9.902;2023-02-15T00:58:56;12.83;;;11.83;;
17524;SDS011;40431;52.198;9.902;2023-02-15T01:01:22;12.27;;;11.27;;
17524;SDS011;40431;52.198;9.902;2023-02-15T01:03:50;12.33;;;11.33;;
17524;SDS011;40431;52.198;9.902;2023-02-15T01:06:17;11.87;;;10.77;;
17524;SDS011;40431;52.198;9.902;2023-02-15T01:08:44;12.47;;;11.47;;
17524;SDS011;40431;52.198;9.902;2023-02-15T01:11:12;11.97;;;11.07;;
17524;SDS011;40431;52.198;9.902;2023-02-15T01:13:41;12.20;;;11.20;;
17524;SDS011;40431;52.198;9.902;2023-02-15T01:16:08;11.03;;;10.13;;
17524;SDS011;40431;52.198;9.902;2023-02-15T01:18:34;12.33;;;11.37;;
17524;SDS011;40431;52.198;9.902;2023-02-15T01:21:08;12.30;;;11.40;;
17524;SDS011;40431;52.198;9.902;2023-02-15T01:23:35;12.83;;;11.73;;
17524;SDS011;40431;52.198;9.902;2023-02-15T01:26:02;11.73;;;10.93;;
17524;SDS011;40431;52.198;9.902;2023-02-15T01:28:28;12.60;;;11.60;;
17524;SDS011;40431;52.198;9.902;2023-02-15T01:30:56;13.20;;;12.10;;
17524;SDS011;40431;52.198;9.902;2023-02-15T01:33:24;12.70;;;11.70;;
17524;SDS011;40431;52.198;9.902;2023-02-15T01:35:55;14.23;;;13.07;;
17524;SDS011;40431;52.198;9.902;2023-02-15T01:38:22;12.03;;;11.10;;
17524;SDS011;40431;52.198;9.902;2023-02-15T01:40:50;12.90;;;11.90;;
17524;SDS011;40431;52.198;9.902;2023-02-15T01:43:16;12.33;;;11.43;;
17524;SDS011;40431;52.198;9.902;2023-02-15T01:45:43;13.03;;;12.10;;
17524;SDS011;40431;52.198;9.902;2023-02-15T01:48:17;13.33;;;12.23;;
17524;SDS011;40431;52.198;9.902;2023-02-15T01:50:47;12.90;;;12.00;;
17524;SDS011;40431;52.198;9.902;2023-02-15T01:53:19;11.63;;;10.73;;
17524;SDS011;40431;52.198;9.902;2023-02-15T01:55:50;11.50;;;10.60;;
17524;SDS011;40431;52.198;9.902;2023-02-15T01:58:21;13.73;;;12.53;;
17524;SDS011;40431;52.198;9.902;2023-02-15T02:00:48;13.17;;;12.07;;
17524;SDS011;40431;52.198;9.902;2023-02-15T02:03:16;12.03;;;11.10;;
17524;SDS011;40431;52.198;9.902;2023-02-15T02:05:46;13.03;;;11.90;;
17524;SDS011;40431;52.198;9.902;2023-02-15T02:08:12;12.93;;;11.93;;
17524;SDS011;40431;52.198;9.902;2023-02-15T02:10:39;11.67;;;10.77;;
17524;SDS011;40431;52.198;9.902;2023-02-15T02:13:05;13.03;;;11.80;;
17524;SDS011;40431;52.198;9.902;2023-02-15T02:15:34;12.83;;;11.83;;
17524;SDS011;40431;52.198;9.902;2023-02-15T02:18:11;13.10;;;12.00;;
17524;SDS011;40431;52.198;9.902;2023-02-15T02:23:58;12.93;;;11.80;;
17524;SDS011;40431;52.198;9.902;2023-02-15T02:26:43;12.53;;;11.53;;
17524;SDS011;40431;52.198;9.902;2023-02-15T02:32:32;11.50;;;10.60;;
17524;SDS011;40431;52.198;9.902;2023-02-15T02:35:13;11.90;;;10.93;;
17524;SDS011;40431;52.198;9.902;2023-02-15T02:37:46;12.23;;;11.23;;
17524;SDS011;40431;52.198;9.902;2023-02-15T02:40:23;12.13;;;11.23;;
17524;SDS011;40431;52.198;9.902;2023-02-15T02:42:58;11.00;;;10.17;;
17524;SDS011;40431;52.198;9.902;2023-02-15T02:45:31;12.33;;;11.33;;
17524;SDS011;40431;52.198;9.902;2023-02-15T02:48:06;12.47;;;11.47;;
17524;SDS011;40431;52.198;9.902;2023-02-15T02:50:38;11.80;;;10.80;;
17524;SDS011;40431;52.198;9.902;2023-02-15T02:53:05;12.73;;;11.60;;
17524;SDS011;40431;52.198;9.902;2023-02-15T02:55:33;12.40;;;11.40;;
17524;SDS011;40431;52.198;9.902;2023-02-15T02:58:05;12.23;;;11.23;;
17524;SDS011;40431;52.198;9.902;2023-02-15T03:00:36;12.40;;;11.40;;
17524;SDS011;40431;52.198;9.902;2023-02-15T03:03:09;12.27;;;11.17;;
17524;SDS011;40431;52.198;9.902;2023-02-15T03:05:41;12.10;;;11.10;;
17524;SDS011;40431;52.198;9.902;2023-02-15T03:08:12;11.73;;;10.73;;
17524;SDS011;40431;52.198;9.902;2023-02-15T03:10:47;11.97;;;11.07;;
17524;SDS011;40431;52.198;9.902;2023-02-15T03:13:16;10.73;;;9.73;;
17524;SDS011;40431;52.198;9.902;2023-02-15T03:15:43;12.20;;;11.30;;
17524;SDS011;40431;52.198;9.902;2023-02-15T03:18:28;10.13;;;9.33;;
17524;SDS011;40431;52.198;9.902;2023-02-15T03:20:58;10.83;;;9.93;;
17524;SDS011;40431;52.198;9.902;2023-02-15T03:23:29;9.70;;;8.93;;
17524;SDS011;40431;52.198;9.902;2023-02-15T03:25:59;11.47;;;10.50;;
17524;SDS011;40431;52.198;9.902;2023-02-15T03:28:28;11.90;;;10.90;;
17524;SDS011;40431;52.198;9.902;2023-02-15T03:30:58;10.17;;;9.47;;
17524;SDS011;40431;52.198;9.902;2023-02-15T03:33:28;10.03;;;9.33;;
17524;SDS011;40431;52.198;9.902;2023-02-15T03:35:57;11.07;;;10.17;;
17524;SDS011;40431;52.198;9.902;2023-02-15T03:38:35;11.10;;;10.20;;
17524;SDS011;40431;52.198;9.902;2023-02-15T03:41:06;10.80;;;9.90;;
17524;SDS011;40431;52.198;9.902;2023-02-15T03:43:37;11.30;;;10.43;;
17524;SDS011;40431;52.198;9.902;2023-02-15T03:46:11;10.53;;;9.63;;
17524;SDS011;40431;52.198;9.902;2023-02-15T03:48:43;10.87;;;9.87;;
17524;SDS011;40431;52.198;9.902;2023-02-15T03:51:14;10.23;;;9.43;;
17524;SDS011;40431;52.198;9.902;2023-02-15T03:54:04;10.60;;;9.80;;
17524;SDS011;40431;52.198;9.902;2023-02-15T03:56:34;12.03;;;11.03;;
17524;SDS011;40431;52.198;9.902;2023-02-15T03:59:02;11.47;;;10.57;;
17524;SDS011;40431;52.198;9.902;2023-02-15T04:01:47;10.90;;;10.07;;
17524;SDS011;40431;52.198;9.902;2023-02-15T04:04:25;9.50;;;8.80;;
17524;SDS011;40431;52.198;9.902;2023-02-15T04:06:55;10.40;;;9.60;;
17524;SDS011;40431;52.198;9.902;2023-02-15T04:09:22;10.30;;;9.50;;
17524;SDS011;40431;52.198;9.902;2023-02-15T04:12:06;10.90;;;10.00;;
17524;SDS011;40431;52.198;9.902;2023-02-15T04:14:33;11.87;;;10.93;;
17524;SDS011;40431;52.198;9.902;2023-02-15T04:17:17;10.87;;;10.00;;
17524;SDS011;40431;52.198;9.902;2023-02-15T04:19:43;12.07;;;11.07;;
17524;SDS011;40431;52.198;9.902;2023-02-15T04:22:28;11.17;;;10.20;;
17524;SDS011;40431;52.198;9.902;2023-02-15T04:25:12;10.90;;;10.00;;
17524;SDS011;40431;52.198;9.902;2023-02-15T04:27:39;10.53;;;9.63;;
17524;SDS011;40431;52.198;9.902;2023-02-15T04:30:09;11.60;;;10.60;;
17524;SDS011;40431;52.198;9.902;2023-02-15T04:32:36;12.37;;;11.37;;
17524;SDS011;40431;52.198;9.902;2023-02-15T04:35:03;11.90;;;10.97;;
17524;SDS011;40431;52.198;9.902;2023-02-15T04:37:32;11.87;;;10.93;;
17524;SDS011;40431;52.198;9.902;2023-02-15T04:39:59;13.53;;;12.43;;
17524;SDS011;40431;52.198;9.902;2023-02-15T04:42:25;13.40;;;12.20;;
17524;SDS011;40431;52.198;9.902;2023-02-15T04:44:52;13.07;;;11.97;;
17524;SDS011;40431;52.198;9.902;2023-02-15T04:47:18;13.30;;;12.30;;
17524;SDS011;40431;52.198;9.902;2023-02-15T04:49:45;13.93;;;12.73;;
17524;SDS011;40431;52.198;9.902;2023-02-15T04:52:11;13.50;;;12.40;;
17524;SDS011;40431;52.198;9.902;2023-02-15T04:54:39;12.67;;;11.67;;
17524;SDS011;40431;52.198;9.902;2023-02-15T04:57:06;12.77;;;11.50;;
17524;SDS011;40431;52.198;9.902;2023-02-15T04:59:32;13.07;;;11.87;;
17524;SDS011;40431;52.198;9.902;2023-02-15T05:01:59;12.63;;;11.63;;
17524;SDS011;40431;52.198;9.902;2023-02-15T05:04:25;12.37;;;11.37;;
17524;SDS011;40431;52.198;9.902;2023-02-15T05:06:52;12.47;;;11.47;;
17524;SDS011;40431;52.198;9.902;2023-02-15T05:09:18;12.40;;;11.40;;
17524;SDS011;40431;52.198;9.902;2023-02-15T05:11:46;12.80;;;11.70;;
17524;SDS011;40431;52.198;9.902;2023-02-15T05:14:12;12.17;;;11.17;;
17524;SDS011;40431;52.198;9.902;2023-02-15T05:16:38;12.47;;;11.47;;
17524;SDS011;40431;52.198;9.902;2023-02-15T05:19:05;12.10;;;11.10;;
17524;SDS011;40431;52.198;9.902;2023-02-15T05:21:32;11.67;;;10.77;;
17524;SDS011;40431;52.198;9.902;2023-02-15T05:23:59;11.70;;;10.80;;
17524;SDS011;40431;52.198;9.902;2023-02-15T05:26:25;15.90;;;14.60;;
17524;SDS011;40431;52.198;9.902;2023-02-15T05:29:10;15.17;;;14.00;;
17524;SDS011;40431;52.198;9.902;2023-02-15T05:31:37;12.77;;;11.77;;
17524;SDS011;40431;52.198;9.902;2023-02-15T05:34:03;13.10;;;12.10;;
17524;SDS011;40431;52.198;9.902;2023-02-15T05:36:29;12.47;;;11.50;;
17524;SDS011;40431;52.198;9.902;2023-02-15T05:38:56;13.73;;;12.53;;
17524;SDS011;40431;52.198;9.902;2023-02-15T05:41:22;13.70;;;12.57;;
17524;SDS011;40431;52.198;9.902;2023-02-15T05:43:50;13.00;;;12.00;;
17524;SDS011;40431;52.198;9.902;2023-02-15T05:46:18;13.60;;;12.50;;
17524;SDS011;40431;52.198;9.902;2023-02-15T05:48:44;16.77;;;15.27;;
17524;SDS011;40431;52.198;9.902;2023-02-15T05:51:11;18.07;;;16.57;;
17524;SDS011;40431;52.198;9.902;2023-02-15T05:53:39;18.07;;;16.63;;
17524;SDS011;40431;52.198;9.902;2023-02-15T05:56:07;19.00;;;16.77;;
17524;SDS011;40431;52.198;9.902;2023-02-15T05:58:36;19.53;;;17.87;;
17524;SDS011;40431;52.198;9.902;2023-02-15T06:01:07;19.03;;;17.27;;
17524;SDS011;40431;52.198;9.902;2023-02-15T06:03:35;18.37;;;16.77;;
17524;SDS011;40431;52.198;9.902;2023-02-15T06:06:02;17.73;;;16.27;;
17524;SDS011;40431;52.198;9.902;2023-02-15T06:08:29;16.57;;;15.07;;
17524;SDS011;40431;52.198;9.902;2023-02-15T06:10:55;16.73;;;15.23;;
17524;SDS011;40431;52.198;9.902;2023-02-15T06:13:22;17.27;;;15.40;;
17524;SDS011;40431;52.198;9.902;2023-02-15T06:15:48;16.37;;;14.87;;
17524;SDS011;40431;52.198;9.902;2023-02-15T06:18:14;15.33;;;14.00;;
17524;SDS011;40431;52.198;9.902;2023-02-15T06:20:42;17.13;;;15.73;;
17524;SDS011;40431;52.198;9.902;2023-02-15T06:23:11;15.43;;;14.13;;
17524;SDS011;40431;52.198;9.902;2023-02-15T06:25:37;15.57;;;14.13;;
17524;SDS011;40431;52.198;9.902;2023-02-15T06:28:04;14.17;;;12.97;;
17524;SDS011;40431;52.198;9.902;2023-02-15T06:30:30;16.57;;;14.03;;
17524;SDS011;40431;52.198;9.902;2023-02-15T06:32:57;16.07;;;14.57;;
17524;SDS011;40431;52.198;9.902;2023-02-15T06:35:23;16.90;;;15.50;;
17524;SDS011;40431;52.198;9.902;2023-02-15T06:37:51;16.47;;;15.07;;
17524;SDS011;40431;52.198;9.902;2023-02-15T06:40:17;16.60;;;15.20;;
17524;SDS011;40431;52.198;9.902;2023-02-15T06:42:44;14.77;;;13.57;;
17524;SDS011;40431;52.198;9.902;2023-02-15T06:45:10;17.63;;;16.03;;
17524;SDS011;40431;52.198;9.902;2023-02-15T06:47:37;17.00;;;15.50;;
17524;SDS011;40431;52.198;9.902;2023-02-15T06:50:04;16.40;;;15.07;;
17524;SDS011;40431;52.198;9.902;2023-02-15T06:52:31;16.70;;;15.30;;
17524;SDS011;40431;52.198;9.902;2023-02-15T06:54:59;17.67;;;16.27;;
17524;SDS011;40431;52.198;9.902;2023-02-15T06:57:25;17.13;;;15.63;;
17524;SDS011;40431;52.198;9.902;2023-02-15T06:59:52;19.20;;;17.67;;
17524;SDS011;40431;52.198;9.902;2023-02-15T07:02:18;17.17;;;15.60;;
17524;SDS011;40431;52.198;9.902;2023-02-15T07:04:45;18.63;;;16.83;;
17524;SDS011;40431;52.198;9.902;2023-02-15T07:07:11;19.23;;;17.30;;
17524;SDS011;40431;52.198;9.902;2023-02-15T07:09:37;19.37;;;17.53;;
17524;SDS011;40431;52.198;9.902;2023-02-15T07:12:05;19.73;;;18.03;;
17524;SDS011;40431;52.198;9.902;2023-02-15T07:14:50;18.37;;;16.70;;
17524;SDS011;40431;52.198;9.902;2023-02-15T07:17:17;21.23;;;19.33;;
17524;SDS011;40431;52.198;9.902;2023-02-15T07:19:43;18.63;;;17.00;;
17524;SDS011;40431;52.198;9.902;2023-02-15T07:22:10;19.63;;;18.03;;
17524;SDS011;40431;52.198;9.902;2023-02-15T07:24:36;17.03;;;15.53;;
17524;SDS011;40431;52.198;9.902;2023-02-15T07:27:02;17.53;;;16.13;;
17524;SDS011;40431;52.198;9.902;2023-02-15T07:29:30;18.33;;;16.83;;
17524;SDS011;40431;52.198;9.902;2023-02-15T07:31:56;16.67;;;15.37;;
17524;SDS011;40431;52.198;9.902;2023-02-15T07:34:23;16.73;;;15.07;;
17524;SDS011;40431;52.198;9.902;2023-02-15T07:36:50;16.60;;;15.20;;
17524;SDS011;40431;52.198;9.902;2023-02-15T07:39:16;16.37;;;14.97;;
17524;SDS011;40431;52.198;9.902;2023-02-15T07:41:43;16.97;;;15.57;;
17524;SDS011;40431;52.198;9.902;2023-02-15T07:44:10;16.90;;;15.40;;
17524;SDS011;40431;52.198;9.902;2023-02-15T07:46:39;17.30;;;15.93;;
17524;SDS011;40431;52.198;9.902;2023-02-15T07:49:06;16.10;;;14.73;;
17524;SDS011;40431;52.198;9.902;2023-02-15T07:51:33;16.80;;;15.30;;
17524;SDS011;40431;52.198;9.902;2023-02-15T07:53:59;18.40;;;16.80;;
17524;SDS011;40431;52.198;9.902;2023-02-15T07:56:25;16.57;;;15.17;;
17524;SDS011;40431;52.198;9.902;2023-02-15T07:58:52;16.60;;;15.10;;
17524;SDS011;40431;52.198;9.902;2023-02-15T08:01:21;16.90;;;15.50;;
17524;SDS011;40431;52.198;9.902;2023-02-15T08:03:51;17.23;;;15.83;;
17524;SDS011;40431;52.198;9.902;2023-02-15T08:06:17;16.47;;;15.07;;
17524;SDS011;40431;52.198;9.902;2023-02-15T08:08:44;16.70;;;15.23;;
17524;SDS011;40431;52.198;9.902;2023-02-15T08:11:14;16.80;;;15.23;;
17524;SDS011;40431;52.198;9.902;2023-02-15T08:13:54;16.90;;;15.40;;
17524;SDS011;40431;52.198;9.902;2023-02-15T08:16:24;15.63;;;14.33;;
17524;SDS011;40431;52.198;9.902;2023-02-15T08:18:53;15.77;;;14.47;;
17524;SDS011;40431;52.198;9.902;2023-02-15T08:21:21;15.47;;;14.17;;
17524;SDS011;40431;52.198;9.902;2023-02-15T08:23:48;16.00;;;14.67;;
17524;SDS011;40431;52.198;9.902;2023-02-15T08:26:14;14.53;;;13.33;;
17524;SDS011;40431;52.198;9.902;2023-02-15T08:28:41;16.90;;;15.50;;
17524;SDS011;40431;52.198;9.902;2023-02-15T08:31:09;16.00;;;14.70;;
17524;SDS011;40431;52.198;9.902;2023-02-15T08:33:37;15.20;;;14.00;;
17524;SDS011;40431;52.198;9.902;2023-02-15T08:36:07;14.60;;;13.40;;
17524;SDS011;40431;52.198;9.902;2023-02-15T08:38:35;14.37;;;13.27;;
17524;SDS011;40431;52.198;9.902;2023-02-15T08:41:08;14.90;;;13.60;;
17524;SDS011;40431;52.198;9.902;2023-02-15T08:43:35;14.13;;;12.93;;
17524;SDS011;40431;52.198;9.902;2023-02-15T08:46:02;13.53;;;12.43;;
17524;SDS011;40431;52.198;9.902;2023-02-15T08:48:29;13.87;;;12.77;;
17524;SDS011;40431;52.198;9.902;2023-02-15T08:50:55;14.83;;;13.63;;
17524;SDS011;40431;52.198;9.902;2023-02-15T08:53:23;14.63;;;13.53;;
17524;SDS011;40431;52.198;9.902;2023-02-15T08:55:54;12.37;;;11.43;;
17524;SDS011;40431;52.198;9.902;2023-02-15T08:58:21;13.13;;;12.10;;
17524;SDS011;40431;52.198;9.902;2023-02-15T09:00:47;13.70;;;12.60;;
17524;SDS011;40431;52.198;9.902;2023-02-15T09:03:13;14.37;;;13.27;;
17524;SDS011;40431;52.198;9.902;2023-02-15T09:05:40;13.13;;;12.10;;
17524;SDS011;40431;52.198;9.902;2023-02-15T09:08:06;14.10;;;12.97;;
17524;SDS011;40431;52.198;9.902;2023-02-15T09:10:34;14.13;;;12.97;;
17524;SDS011;40431;52.198;9.902;2023-02-15T09:13:00;13.83;;;12.73;;
17524;SDS011;40431;52.198;9.902;2023-02-15T09:15:27;13.00;;;12.00;;
17524;SDS011;40431;52.198;9.902;2023-02-15T09:17:53;13.77;;;12.67;;
17524;SDS011;40431;52.198;9.902;2023-02-15T09:20:19;12.67;;;11.77;;
17524;SDS011;40431;52.198;9.902;2023-02-15T09:22:46;13.37;;;12.33;;
17524;SDS011;40431;52.198;9.902;2023-02-15T09:25:13;13.90;;;12.73;;
17524;SDS011;40431;52.198;9.902;2023-02-15T09:27:40;12.93;;;11.93;;
17524;SDS011;40431;52.198;9.902;2023-02-15T09:30:08;13.87;;;12.77;;
17524;SDS011;40431;52.198;9.902;2023-02-15T09:32:35;12.83;;;11.87;;
17524;SDS011;40431;52.198;9.902;2023-02-15T09:35:01;13.10;;;12.10;;
17524;SDS011;40431;52.198;9.902;2023-02-15T09:37:29;13.97;;;12.87;;
17524;SDS011;40431;52.198;9.902;2023-02-15T09:39:56;13.80;;;12.60;;
17524;SDS011;40431;52.198;9.902;2023-02-15T09:45:48;11.97;;;11.07;;
17524;SDS011;40431;52.198;9.902;2023-02-15T09:48:29;12.20;;;11.20;;
17524;SDS011;40431;52.198;9.902;2023-02-15T09:54:15;11.40;;;10.60;;
17524;SDS011;40431;52.198;9.902;2023-02-15T09:56:55;11.77;;;10.87;;
17524;SDS011;40431;52.198;9.902;2023-02-15T09:59:27;12.17;;;11.27;;
17524;SDS011;40431;52.198;9.902;2023-02-15T10:02:06;13.33;;;12.23;;
17524;SDS011;40431;52.198;9.902;2023-02-15T10:04:49;11.70;;;10.90;;
17524;SDS011;40431;52.198;9.902;2023-02-15T10:07:30;10.77;;;9.97;;
17524;SDS011;40431;52.198;9.902;2023-02-15T10:10:19;10.60;;;9.80;;
17524;SDS011;40431;52.198;9.902;2023-02-15T10:12:57;11.10;;;10.30;;
17524;SDS011;40431;52.198;9.902;2023-02-15T10:15:42;10.23;;;9.43;;
17524;SDS011;40431;52.198;9.902;2023-02-15T10:18:22;11.00;;;10.13;;
17524;SDS011;40431;52.198;9.902;2023-02-15T10:21:01;10.53;;;9.73;;
17524;SDS011;40431;52.198;9.902;2023-02-15T10:23:38;10.03;;;9.30;;
17524;SDS011;40431;52.198;9.902;2023-02-15T10:26:19;8.70;;;8.07;;
17524;SDS011;40431;52.198;9.902;2023-02-15T10:28:48;10.10;;;9.33;;
17524;SDS011;40431;52.198;9.902;2023-02-15T10:31:20;10.53;;;9.67;;
17524;SDS011;40431;52.198;9.902;2023-02-15T10:33:52;10.30;;;9.50;;
17524;SDS011;40431;52.198;9.902;2023-02-15T10:36:38;9.77;;;9.00;;
17524;SDS011;40431;52.198;9.902;2023-02-15T10:39:21;8.80;;;8.20;;
17524;SDS011;40431;52.198;9.902;2023-02-15T10:41:59;10.20;;;9.40;;
17524;SDS011;40431;52.198;9.902;2023-02-15T10:44:37;10.20;;;9.50;;
17524;SDS011;40431;52.198;9.902;2023-02-15T10:47:20;9.43;;;8.73;;
17524;SDS011;40431;52.198;9.902;2023-02-15T10:50:10;9.70;;;8.97;;
17524;SDS011;40431;52.198;9.902;2023-02-15T10:52:49;10.63;;;9.60;;
17524;SDS011;40431;52.198;9.902;2023-02-15T10:55:28;10.27;;;9.47;;
17524;SDS011;40431;52.198;9.902;2023-02-15T10:58:05;10.20;;;9.40;;
17524;SDS011;40431;52.198;9.902;2023-02-15T11:00:41;9.77;;;8.97;;
17524;SDS011;40431;52.198;9.902;2023-02-15T11:03:16;9.87;;;9.17;;
17524;SDS011;40431;52.198;9.902;2023-02-15T11:05:59;11.47;;;9.53;;
17524;SDS011;40431;52.198;9.902;2023-02-15T11:08:31;10.83;;;10.03;;
17524;SDS011;40431;52.198;9.902;2023-02-15T11:11:01;9.47;;;8.77;;
17524;SDS011;40431;52.198;9.902;2023-02-15T11:13:32;9.60;;;8.87;;
17524;SDS011;40431;52.198;9.902;2023-02-15T11:16:04;12.73;;;10.27;;
17524;SDS011;40431;52.198;9.902;2023-02-15T11:18:34;10.40;;;9.70;;
17524;SDS011;40431;52.198;9.902;2023-02-15T11:21:05;10.20;;;9.30;;
17524;SDS011;40431;52.198;9.902;2023-02-15T11:23:35;9.37;;;8.67;;
17524;SDS011;40431;52.198;9.902;2023-02-15T11:26:10;9.70;;;8.90;;
17524;SDS011;40431;52.198;9.902;2023-02-15T11:28:41;10.47;;;9.57;;
17524;SDS011;40431;52.198;9.902;2023-02-15T11:31:12;10.73;;;9.93;;
17524;SDS011;40431;52.198;9.902;2023-02-15T11:33:43;10.13;;;9.37;;
17524;SDS011;40431;52.198;9.902;2023-02-15T11:36:15;8.97;;;8.37;;
17524;SDS011;40431;52.198;9.902;2023-02-15T11:38:46;9.93;;;9.13;;
17524;SDS011;40431;52.198;9.902;2023-02-15T11:41:17;9.70;;;9.00;;
17524;SDS011;40431;52.198;9.902;2023-02-15T11:43:49;10.80;;;10.00;;
17524;SDS011;40431;52.198;9.902;2023-02-15T11:46:21;11.70;;;10.70;;
17524;SDS011;40431;52.198;9.902;2023-02-15T11:48:47;10.17;;;9.37;;
17524;SDS011;40431;52.198;9.902;2023-02-15T11:51:16;10.77;;;9.83;;
17524;SDS011;40431;52.198;9.902;2023-02-15T11:53:45;11.50;;;9.03;;
17524;SDS011;40431;52.198;9.902;2023-02-15T11:56:13;10.33;;;8.43;;
17524;SDS011;40431;52.198;9.902;2023-02-15T11:58:42;13.70;;;7.97;;
17524;SDS011;40431;52.198;9.902;2023-02-15T12:01:13;8.20;;;7.50;;
17524;SDS011;40431;52.198;9.902;2023-02-15T12:03:43;8.90;;;8.20;;
17524;SDS011;40431;52.198;9.902;2023-02-15T12:06:16;8.43;;;7.73;;
17524;SDS011;40431;52.198;9.902;2023-02-15T12:08:50;8.90;;;8.30;;
17524;SDS011;40431;52.198;9.902;2023-02-15T12:11:20;9.40;;;8.70;;
17524;SDS011;40431;52.198;9.902;2023-02-15T12:13:55;9.80;;;8.93;;
17524;SDS011;40431;52.198;9.902;2023-02-15T12:16:23;10.20;;;9.07;;
17524;SDS011;40431;52.198;9.902;2023-02-15T12:18:51;9.17;;;8.47;;
17524;SDS011;40431;52.198;9.902;2023-02-15T12:21:25;9.90;;;9.10;;
17524;SDS011;40431;52.198;9.902;2023-02-15T12:23:55;12.17;;;11.27;;
17524;SDS011;40431;52.198;9.902;2023-02-15T12:26:23;10.40;;;9.70;;
17524;SDS011;40431;52.198;9.902;2023-02-15T12:28:51;10.40;;;9.67;;
17524;SDS011;40431;52.198;9.902;2023-02-15T12:31:20;10.40;;;9.40;;
17524;SDS011;40431;52.198;9.902;2023-02-15T12:33:50;10.57;;;9.67;;
17524;SDS011;40431;52.198;9.902;2023-02-15T12:36:19;10.80;;;9.90;;
17524;SDS011;40431;52.198;9.902;2023-02-15T12:41:31;11.73;;;10.77;;
17524;SDS011;40431;52.198;9.902;2023-02-15T12:44:05;13.27;;;11.97;;
17524;SDS011;40431;52.198;9.902;2023-02-15T12:46:33;13.70;;;12.50;;
17524;SDS011;40431;52.198;9.902;2023-02-15T12:49:16;11.43;;;10.60;;
17524;SDS011;40431;52.198;9.902;2023-02-15T12:51:44;11.47;;;10.23;;
17524;SDS011;40431;52.198;9.902;2023-02-15T12:54:20;10.10;;;9.20;;
17524;SDS011;40431;52.198;9.902;2023-02-15T12:56:54;10.40;;;9.50;;
17524;SDS011;40431;52.198;9.902;2023-02-15T12:59:22;11.80;;;10.90;;
17524;SDS011;40431;52.198;9.902;2023-02-15T13:01:49;11.40;;;10.50;;
17524;SDS011;40431;52.198;9.902;2023-02-15T13:04:21;11.17;;;10.37;;
17524;SDS011;40431;52.198;9.902;2023-02-15T13:06:51;10.80;;;9.90;;
17524;SDS011;40431;52.198;9.902;2023-02-15T13:09:20;11.50;;;10.57;;
17524;SDS011;40431;52.198;9.902;2023-02-15T13:11:54;10.73;;;9.93;;
17524;SDS011;40431;52.198;9.902;2023-02-15T13:14:24;10.97;;;10.07;;
17524;SDS011;40431;52.198;9.902;2023-02-15T13:16:57;10.90;;;10.00;;
17524;SDS011;40431;52.198;9.902;2023-02-15T13:19:29;11.07;;;10.17;;
17524;SDS011;40431;52.198;9.902;2023-02-15T13:22:00;11.10;;;9.97;;
17524;SDS011;40431;52.198;9.902;2023-02-15T13:24:33;10.37;;;9.57;;
17524;SDS011;40431;52.198;9.902;2023-02-15T13:27:03;11.13;;;10.07;;
17524;SDS011;40431;52.198;9.902;2023-02-15T13:29:30;11.33;;;10.33;;
17524;SDS011;40431;52.198;9.902;2023-02-15T13:32:04;12.37;;;10.00;;
17524;SDS011;40431;52.198;9.902;2023-02-15T13:34:38;10.07;;;9.27;;
17524;SDS011;40431;52.198;9.902;2023-02-15T13:37:06;10.00;;;9.27;;
17524;SDS011;40431;52.198;9.902;2023-02-15T13:39:43;10.50;;;9.70;;
17524;SDS011;40431;52.198;9.902;2023-02-15T13:42:19;9.90;;;9.20;;
17524;SDS011;40431;52.198;9.902;2023-02-15T13:44:52;10.83;;;10.00;;
17524;SDS011;40431;52.198;9.902;2023-02-15T13:47:27;9.70;;;9.00;;
17524;SDS011;40431;52.198;9.902;2023-02-15T13:50:05;9.93;;;9.10;;
17524;SDS011;40431;52.198;9.902;2023-02-15T13:52:46;9.13;;;8.30;;
17524;SDS011;40431;52.198;9.902;2023-02-15T13:55:25;9.40;;;8.60;;
17524;SDS011;40431;52.198;9.902;2023-02-15T13:58:03;10.00;;;9.13;;
17524;SDS011;40431;52.198;9.902;2023-02-15T14:00:47;9.70;;;8.70;;
17524;SDS011;40431;52.198;9.902;2023-02-15T14:03:40;10.30;;;9.37;;
17524;SDS011;40431;52.198;9.902;2023-02-15T14:09:27;9.27;;;8.47;;
17524;SDS011;40431;52.198;9.902;2023-02-15T14:12:07;10.00;;;9.17;;
17524;SDS011;40431;52.198;9.902;2023-02-15T14:14:52;11.03;;;9.93;;
17524;SDS011;40431;52.198;9.902;2023-02-15T14:17:41;10.93;;;9.97;;
17524;SDS011;40431;52.198;9.902;2023-02-15T14:20:16;12.13;;;10.90;;
17524;SDS011;40431;52.198;9.902;2023-02-15T14:22:49;11.10;;;10.20;;
17524;SDS011;40431;52.198;9.902;2023-02-15T14:25:20;11.70;;;10.60;;
17524;SDS011;40431;52.198;9.902;2023-02-15T14:27:56;11.97;;;10.90;;
17524;SDS011;40431;52.198;9.902;2023-02-15T14:30:31;11.47;;;10.37;;
17524;SDS011;40431;52.198;9.902;2023-02-15T14:33:03;11.13;;;10.20;;
17524;SDS011;40431;52.198;9.902;2023-02-15T14:35:32;11.03;;;10.13;;
17524;SDS011;40431;52.198;9.902;2023-02-15T14:38:02;12.00;;;10.93;;
17524;SDS011;40431;52.198;9.902;2023-02-15T14:40:38;12.17;;;11.17;;
17524;SDS011;40431;52.198;9.902;2023-02-15T14:43:37;12.03;;;10.90;;
17524;SDS011;40431;52.198;9.902;2023-02-15T14:46:16;11.53;;;10.53;;
17524;SDS011;40431;52.198;9.902;2023-02-15T14:48:50;12.03;;;10.83;;
17524;SDS011;40431;52.198;9.902;2023-02-15T14:57:25;12.07;;;11.07;;
17524;SDS011;40431;52.198;9.902;2023-02-15T14:59:55;11.63;;;10.53;;
17524;SDS011;40431;52.198;9.902;2023-02-15T15:02:23;13.10;;;11.67;;
17524;SDS011;40431;52.198;9.902;2023-02-15T15:04:55;11.50;;;10.60;;
17524;SDS011;40431;52.198;9.902;2023-02-15T15:07:26;13.57;;;11.77;;
17524;SDS011;40431;52.198;9.902;2023-02-15T15:09:58;12.87;;;11.67;;